Scroll down
FLIGHT INFORMATION
American Airlines

AAL739

At Arrival Gate

KPHX
 KORD
DATE: 2019-12-01
GATE:  -
GATE DEPARTURE: 20:48
TAKEOFF: 21:02
DATE: 2019-12-01
GATE:  -
LANDING: 23:47
GATE ARRIVAL: 00:01
FLIGHT DATA
Crew: 
Speed: 
489 kts
Altitude: 
35,015 ft
Stage Length: 
1,249.1 nm
Block Time: 
3.2 hrs
Flight Time: 
2.8 hrs
Fuel Used: 
18,169 lb
Cleared Route: 
TRACK DATA
50,000 ft 1,000 kts
AIRCRAFT INFO AND CUMULATIVE STATS
Aircraft Type: 
B738BW
Registration: 
SELCAL: 
MSN/LN: 
33229 / 4390
Operator: 
Total Flights: 
33
Total Block Time: 
66.7 hrs
Total Flight Time: 
55.9 hrs
Total Fuel Time: 
371,985 lb
DATALINK LOG | Newest first | Current as of: 2020-12-01 20:28:36
LABEL SEQUENCE CONTENT Dn/Up
QD025900:01 13.8▼ Dn
QC483023:47▼ Dn
GA4031ADVANCED GATE ASSIGNMENTS NOT YET AVAILABLE AT THIS AIRPORT▲ Up
GR3906KORD --:-- MAAS 00 YP/UM 00/00 WCHR/S/C 03/00/00 HI-VAL YES DIPL/VIP NO▼ Dn
2U1717KORD 012251Z 34010KT 10SM SCT015 BKN022 OVC046 03/01 A2952 RMK AO2 RAE06 SLP001 P0000 T00280006 $▲ Up
2S1717KORD▼ Dn
2U5631KORD 012227Z 33009KT 10SM SCT010 BKN015 OVC027 03/01 A2951 RMK AO2 RAE06 P0000 T00280011 $▲ Up
2S5631KORD▼ Dn
QB021521:02▼ Dn
QA495320:48 32▼ Dn
A33243CLEARED TO KORD VIA FORPE1 ABQ FTI J18 SLN J96 IRK BENKY5. SQUAWK 3314.▲ Up
2U3105KPHX 011951Z 07007KT 10SM FEW150 BKN250 17/M03 A3010 RMK AO2 SLP188 T01721028 $▲ Up
5U3111KORD 020028Z 34013G22KT 3SM -SHSN BR SCT007 OVC010 03/02 A2939▲ Up
5S3111KORD▼ Dn
2S3105KPHX▼ Dn
Q03133[LINK ACK]▲ Up
Q03037[LINK TEST]▼ Dn


AIRCRAFT HISTORY
FLIGHT DATE FLIGHT NO. ORIGIN DESTINATION CLEARED ROUTE BLOCK TIME FLIGHT TIME FUEL USED PILOT
2020-07-25AAL6824KSBA KIDA 2 hrs1.7 hrs10,218 lbPete L.
2020-07-25AAL6823KMSO KSBA KMSO IPPUG VICTO OCFOW LKT TWF ELY HEC FRIRR PIRYT PITBL KWANG HHOME GRYSN ECEVA RW072.8 hrs2.4 hrs13,627 lbPete L.
2020-07-22AAL5928KDFW KMSO KDFW BPARK YAMEL FIRMN PGLET MUTEE HUDAD LAA DVV BOY HIA LOLLO RW123.2 hrs2.9 hrs16,514 lbPete L.
2020-07-19AAL2585KORD KDFW KORD PEKUE PIGGG QUANE CARET ROEZZ BUM COODY TUL KLAWW JERBL BUDDD FAWNT WNSTR RBUKL CRUTH VKTRY ZMMAN PHAUP BOSSI RW17C2.2 hrs1.9 hrs11,850 lbDan Downs
2020-07-16AAL2881KLAS KORD KLAS LEELN TOMIS BATIS MEDOE STAAV TRALR NICLE DVC HBU GLD PWE IRK LOAMY KEOKK DRAMS RYELY BDF BYLAW BENKY NEWRK AHSTN PETAH JORJO MONKZ TONIE VOGLR RW28C3.4 hrs3 hrs18,595 lbDan Downs
2020-07-10AAL2609KDFW KLAS KDFW BOTCH SWABR TYGGR DBLSS HRPER HULZE TXO MIERA ABQ LORAT GUP DILCO HMFRY BAVPE CUTRO PGS KLAS2.8 hrs2.3 hrs14,155 lbMichael Roth
2020-07-09AAL1094KBOS KDFW KBOS NHANT HURBE STAYC SHAAN HYLND CAM HNK BUFFY DARBO DGRAF MAGIO ULW53 BIGEO PSB AIR FLM KI48M PLESS KM39I KM33G FSM RRNET PLEZE CHMLI JUSST SWTCH THEMM SEEVR BRDJE NUSSS YAHBT BOSSI RW17C3.6 hrs3.3 hrs18,918 lbDan Downs
2020-05-19AAL413KIAD KBOS 1.8 hrs1.5 hrs9,232 lbCharles Harris
2020-01-20AAL2592KCLT KIAD 1.1 hrs0.8 hrs5,892 lbMichael Roth
2020-01-16AAL710KATL KCLT 1.1 hrs0.8 hrs5,627 lb-HIDDEN-
2020-01-10AAL1643KCLT KATL 1.4 hrs0.9 hrs6,651 lb-HIDDEN-
2020-01-09AAL2186KBWI KCLT 1.3 hrs1 hrs6,823 lbMichael Roth
2020-01-09AAL820KORD KBWI 2 hrs1.6 hrs9,713 lbCharles Harris
2020-01-05AAL1442KPDX KORD 3.7 hrs3.1 hrs20,510 lbGeorge M
2020-01-01AAL101KGPI KPDX 1.4 hrs1.2 hrs7,436 lbCharles Harris
2019-12-31AAL5822KMSP KGPI 3.3 hrs1 hrs15,626 lbPete L.
2019-12-27AAL3218KORD KMSP 1.2 hrs1 hrs6,973 lbGeorge M
2019-12-27AAL3255KORD KORD 1.3 hrs1 hrs7,300 lbGeorge M
2019-12-24AAL2560KMSP KORD KMSP FGT FOBUG DOKTR CORDY RST ZZIPR WELCM TEEOO MITEE BHAWK STNLE CUUPP CHMPN CLSBY FYTTE MOTRR COGSS MADII SOOLU JORJO MONKZ TONIE HAZIL RW28C1.3 hrs0.9 hrs6,920 lbGeorge M
2019-12-23AAL2381KORD KMSP KORD PMPKN NEATO DLLAN RONIC KAMMA BEERI ROBBY KBULL ZZING HENDR CMAAC KKILR HUGGI KRISP STUWE GEEQU AABEZ RW30L1.4 hrs1 hrs7,656 lbGeorge M
2019-12-22AAL3171KBWI KORD KBWI WONCE TERPZ FOXHL RAMAY BENSH GEQUE HACKS SUMET VLADY EMPTY MECAN ROD FWA SPANN DAIFE WATSN HAUPO MKITA PRISE HULLS STYLE DWEEB VOGLR CENAK HAZIL RW28C1.9 hrs1.6 hrs10,512 lbGeorge M
2019-12-10AAL1209KCLE KBWI 1.5 hrs1.3 hrs8,825 lbCharles Harris
2019-12-03AAL519KORD KCLE 1.1 hrs0.9 hrs6,198 lbSteven Perry
2019-12-01AAL739KPHX KORD 3.2 hrs2.8 hrs18,169 lbGeorge M
2019-12-01AAL2097KORD KPHX 3.6 hrs3.3 hrs25,754 lbGeorge M
2019-12-01AAL519KMCI KORD 1.3 hrs0.9 hrs6,982 lbSteven Perry
2019-11-30AAL519KDFW KMCI 1.3 hrs1 hrs7,457 lbSteven Perry
2019-11-20AAL1361KRNO KDFW 3.1 hrs2.8 hrs16,758 lbDan Downs
2019-11-19AAL633KPHX KRNO 2 hrs1.5 hrs10,198 lbCharles Harris
2019-11-17AAL482KDEN KPHX 1.6 hrs1.3 hrs9,483 lbGeorge M
2019-11-16AAL1962KDFW KDEN 2 hrs1.6 hrs9,919 lbPete L.
2019-11-14AAL1215MMPR KDFW 2.4 hrs2.2 hrs13,471 lbDan Downs
2019-11-13AAL1702KLAX MMPR 2.7 hrs2.4 hrs15,324 lbDan Downs